Time;durP1;ratioP1;P1;durP2;ratioP2;P2;SDS_P1;SDS_P2;PMS_P1;PMS_P2;Temp;Humidity;BMP_temperature;BMP_pressure;BME280_temperature;BME280_humidity;BME280_pressure;Samples;Min_cycle;Max_cycle;Signal;HPM_P1;HPM_P2
2023/09/18 00:02:31;;;;;;;35.72;24.88;;;22.50;99.90;;;;;;5103127;27;20035;-81
2023/09/18 00:04:56;;;;;;;35.53;25.95;;;22.50;99.90;;;;;;5091834;28;20107;-82
2023/09/18 00:07:22;;;;;;;40.22;26.63;;;22.30;99.90;;;;;;5099524;28;20503;-85
2023/09/18 00:09:48;;;;;;;41.47;27.77;;;22.30;99.90;;;;;;5102503;28;20085;-82
2023/09/18 00:12:14;;;;;;;35.65;25.92;;;22.50;99.90;;;;;;5097821;28;20155;-80
2023/09/18 00:14:41;;;;;;;33.05;25.58;;;22.40;99.90;;;;;;5088061;28;20122;-80
2023/09/18 00:17:07;;;;;;;37.85;28.10;;;22.50;99.90;;;;;;5086975;28;20221;-81
2023/09/18 00:19:33;;;;;;;39.00;28.90;;;22.30;99.90;;;;;;5094704;28;20047;-82
2023/09/18 00:22:00;;;;;;;36.60;27.65;;;22.40;99.90;;;;;;5071103;28;20039;-82
2023/09/18 00:24:32;;;;;;;34.50;26.20;;;22.70;99.90;;;;;;5082214;28;20046;-81
2023/09/18 00:26:57;;;;;;;37.03;25.85;;;22.50;99.90;;;;;;5119245;28;20035;-83
2023/09/18 00:29:23;;;;;;;34.03;25.17;;;22.70;99.90;;;;;;5104709;28;20070;-83
2023/09/18 00:31:49;;;;;;;32.53;25.45;;;22.40;99.90;;;;;;5121859;27;20033;-81
2023/09/18 00:34:14;;;;;;;36.25;26.85;;;22.50;99.90;;;;;;5106827;28;20044;-82
2023/09/18 00:36:41;;;;;;;46.28;30.30;;;22.50;99.90;;;;;;5108414;27;20031;-86
2023/09/18 00:39:08;;;;;;;36.67;27.05;;;22.30;99.90;;;;;;5088968;27;20050;-82
2023/09/18 00:41:40;;;;;;;42.63;28.75;;;22.70;99.90;;;;;;5107648;28;20118;-83
2023/09/18 00:44:06;;;;;;;35.17;26.73;;;22.60;99.90;;;;;;5118831;27;20030;-83
2023/09/18 00:46:33;;;;;;;42.10;29.67;;;22.40;99.90;;;;;;5109109;28;20042;-83
2023/09/18 00:48:59;;;;;;;40.92;29.35;;;22.40;99.90;;;;;;5124560;27;20054;-82
2023/09/18 00:51:25;;;;;;;40.10;28.55;;;22.50;99.90;;;;;;5091350;28;20455;-81
2023/09/18 00:53:51;;;;;;;71.38;36.63;;;22.70;99.90;;;;;;5104985;27;20043;-82
2023/09/18 00:56:20;;;;;;;36.78;27.30;;;22.60;99.90;;;;;;5107916;27;20035;-82
2023/09/18 00:58:46;;;;;;;48.58;33.22;;;22.50;99.90;;;;;;5101273;28;20036;-81
2023/09/18 01:01:14;;;;;;;42.33;31.27;;;22.60;99.90;;;;;;5116244;27;20118;-80
2023/09/18 01:03:40;;;;;;;38.38;28.55;;;22.80;99.90;;;;;;5096324;28;20032;-82
2023/09/18 01:06:06;;;;;;;37.25;28.40;;;22.70;99.90;;;;;;5092404;27;20069;-81
2023/09/18 01:08:31;;;;;;;39.28;30.70;;;22.50;99.90;;;;;;5091984;27;20047;-80
2023/09/18 01:11:05;;;;;;;37.15;29.70;;;22.70;99.90;;;;;;5116912;27;20096;-81
2023/09/18 01:13:38;;;;;;;38.25;29.38;;;22.40;99.90;;;;;;5105388;28;20035;-82
2023/09/18 01:16:37;;;;;;;38.03;30.25;;;22.50;99.90;;;;;;5090936;27;20067;-82
2023/09/18 01:19:03;;;;;;;35.53;27.73;;;22.70;99.90;;;;;;5119201;27;20048;-80
2023/09/18 01:21:30;;;;;;;37.95;29.38;;;22.50;99.90;;;;;;5111323;27;20041;-83
2023/09/18 01:23:56;;;;;;;36.20;28.42;;;22.50;99.90;;;;;;5101706;27;20089;-81
2023/09/18 01:26:22;;;;;;;36.13;28.83;;;22.40;99.90;;;;;;5091455;27;20163;-81
2023/09/18 01:28:48;;;;;;;32.58;29.00;;;22.60;99.90;;;;;;5100475;27;20621;-81
2023/09/18 01:31:14;;;;;;;37.17;29.77;;;22.50;99.90;;;;;;5116601;27;20123;-82
2023/09/18 01:33:40;;;;;;;34.30;29.55;;;22.50;99.90;;;;;;5065555;27;20061;-81
2023/09/18 01:36:08;;;;;;;34.97;30.15;;;22.80;99.90;;;;;;5118881;27;20039;-83
2023/09/18 01:38:36;;;;;;;34.38;28.92;;;22.60;99.90;;;;;;5123299;27;20507;-82
2023/09/18 01:41:02;;;;;;;34.35;28.90;;;22.80;99.90;;;;;;5102852;27;20043;-82
2023/09/18 01:43:28;;;;;;;33.90;30.10;;;22.80;99.90;;;;;;5099302;27;20039;-82
2023/09/18 01:45:55;;;;;;;34.50;29.92;;;22.90;99.90;;;;;;5099310;27;20053;-82
2023/09/18 01:48:21;;;;;;;32.17;28.15;;;22.60;99.90;;;;;;5126492;27;20490;-81
2023/09/18 01:50:47;;;;;;;32.70;27.98;;;22.90;99.90;;;;;;5106657;27;20498;-80
2023/09/18 01:53:13;;;;;;;33.00;29.50;;;22.80;99.90;;;;;;5102930;27;20062;-80
2023/09/18 01:55:39;;;;;;;29.88;26.77;;;22.90;99.90;;;;;;5124510;27;20039;-82
2023/09/18 01:58:05;;;;;;;31.27;27.50;;;22.90;99.90;;;;;;5097422;27;20035;-82
2023/09/18 02:00:30;;;;;;;34.05;29.58;;;23.00;99.90;;;;;;5102715;27;20443;-81
2023/09/18 02:02:56;;;;;;;32.80;29.02;;;22.70;99.90;;;;;;5097097;27;20038;-82
2023/09/18 02:05:22;;;;;;;32.63;29.17;;;23.00;99.90;;;;;;5107338;27;20122;-81
2023/09/18 02:07:48;;;;;;;30.45;27.25;;;22.60;99.90;;;;;;5121746;27;20065;-81
2023/09/18 02:10:13;;;;;;;30.30;26.85;;;22.60;99.90;;;;;;5091931;27;20051;-79
2023/09/18 02:12:39;;;;;;;31.33;28.05;;;22.60;99.90;;;;;;5109611;27;20047;-80
2023/09/18 02:15:06;;;;;;;35.13;28.27;;;22.90;99.90;;;;;;5081575;27;20086;-80
2023/09/18 02:17:32;;;;;;;37.40;31.65;;;22.50;99.90;;;;;;5073369;27;20548;-82
2023/09/18 02:20:00;;;;;;;30.77;27.50;;;22.90;99.90;;;;;;5101753;27;20043;-82
2023/09/18 02:22:26;;;;;;;32.08;28.55;;;22.90;99.90;;;;;;5086152;27;20034;-82
2023/09/18 02:24:52;;;;;;;31.88;28.48;;;22.90;99.90;;;;;;5100284;27;20039;-82
2023/09/18 02:27:18;;;;;;;31.73;28.15;;;22.90;99.90;;;;;;5089718;27;20031;-81
2023/09/18 02:29:53;;;;;;;32.60;29.10;;;22.90;99.90;;;;;;5075661;28;20130;-81
2023/09/18 02:32:19;;;;;;;32.80;29.27;;;22.90;99.90;;;;;;5094984;27;20101;-81
2023/09/18 02:34:45;;;;;;;30.88;27.65;;;22.60;99.90;;;;;;5123425;27;20131;-81
2023/09/18 02:37:10;;;;;;;32.10;28.05;;;22.60;99.90;;;;;;5124563;27;20117;-80
2023/09/18 02:39:36;;;;;;;32.95;29.35;;;22.70;99.90;;;;;;5100477;27;20047;-82
2023/09/18 02:42:02;;;;;;;30.00;26.27;;;22.60;99.90;;;;;;5100852;27;20046;-81
2023/09/18 02:44:27;;;;;;;28.35;25.50;;;22.80;99.90;;;;;;5094782;27;20134;-80
2023/09/18 02:46:55;;;;;;;31.40;28.20;;;23.00;99.90;;;;;;5095968;27;20543;-81
2023/09/18 02:49:21;;;;;;;31.88;28.20;;;22.80;99.90;;;;;;5116890;27;20104;-80
2023/09/18 02:51:47;;;;;;;29.83;26.60;;;23.00;99.90;;;;;;5107023;27;20429;-80
2023/09/18 02:54:12;;;;;;;29.40;26.20;;;22.80;99.90;;;;;;5112204;27;20035;-80
2023/09/18 02:56:38;;;;;;;31.05;27.75;;;22.70;99.90;;;;;;5108819;27;20039;-83
2023/09/18 02:59:04;;;;;;;31.02;27.77;;;22.80;99.90;;;;;;5068603;27;20232;-83
2023/09/18 03:01:30;;;;;;;30.77;27.13;;;22.80;99.90;;;;;;5109996;27;20038;-81
2023/09/18 03:03:56;;;;;;;30.98;27.60;;;23.00;99.90;;;;;;5118008;27;20037;-83
2023/09/18 03:06:21;;;;;;;28.38;25.48;;;23.00;99.90;;;;;;5103820;27;20434;-82
2023/09/18 03:08:47;;;;;;;28.38;25.45;;;23.00;99.90;;;;;;5100974;27;20042;-82
2023/09/18 03:11:14;;;;;;;30.42;25.98;;;23.00;99.90;;;;;;5119939;27;20051;-81
2023/09/18 03:13:47;;;;;;;27.60;24.70;;;22.70;99.90;;;;;;5101626;27;20127;-83
2023/09/18 03:16:13;;;;;;;27.08;24.30;;;23.10;99.90;;;;;;5101815;27;20097;-82
2023/09/18 03:18:39;;;;;;;26.27;23.58;;;23.00;99.90;;;;;;5105806;27;20092;-82
2023/09/18 03:21:04;;;;;;;27.33;24.40;;;23.00;99.90;;;;;;5087230;27;20039;-82
2023/09/18 03:23:30;;;;;;;24.85;22.17;;;22.80;99.90;;;;;;5109828;27;20044;-83
2023/09/18 03:25:56;;;;;;;27.08;24.15;;;22.70;99.90;;;;;;5092520;27;20538;-81
2023/09/18 03:28:21;;;;;;;27.00;24.10;;;22.80;99.90;;;;;;5109137;27;20075;-83
2023/09/18 03:30:47;;;;;;;26.50;23.27;;;23.00;99.90;;;;;;5082794;27;20089;-83
2023/09/18 03:33:13;;;;;;;25.60;22.60;;;22.90;99.90;;;;;;5119133;27;20047;-82
2023/09/18 03:35:50;;;;;;;25.13;22.48;;;22.70;99.90;;;;;;5117831;27;20059;-83
2023/09/18 03:38:15;;;;;;;25.13;22.50;;;23.00;99.90;;;;;;5072227;27;20039;-84
2023/09/18 03:40:41;;;;;;;24.27;21.67;;;22.90;99.90;;;;;;5106388;27;20038;-83
2023/09/18 03:43:07;;;;;;;23.77;21.27;;;22.90;99.90;;;;;;5121178;27;20122;-82
2023/09/18 03:45:36;;;;;;;24.92;22.17;;;22.80;99.90;;;;;;5102034;27;20387;-82
2023/09/18 03:48:01;;;;;;;24.88;22.15;;;22.90;99.90;;;;;;5088144;28;20035;-83
2023/09/18 03:50:28;;;;;;;23.33;21.02;;;22.70;99.90;;;;;;5116639;27;20031;-85
2023/09/18 03:52:54;;;;;;;22.05;19.75;;;22.80;99.90;;;;;;5070128;27;20054;-83
2023/09/18 03:55:20;;;;;;;24.25;21.73;;;23.00;99.90;;;;;;5102868;28;20036;-85
2023/09/18 03:57:48;;;;;;;23.15;20.75;;;22.80;99.90;;;;;;5104848;27;20040;-85
2023/09/18 04:00:15;;;;;;;22.08;19.77;;;22.80;99.90;;;;;;5107941;27;20045;-85
2023/09/18 04:02:41;;;;;;;22.83;20.42;;;23.10;99.90;;;;;;5102017;27;20035;-84
2023/09/18 04:05:13;;;;;;;22.27;19.50;;;22.90;99.90;;;;;;5123299;27;20035;-84
2023/09/18 04:07:39;;;;;;;22.13;19.83;;;22.90;99.90;;;;;;5134371;27;20568;-85
2023/09/18 04:10:05;;;;;;;20.70;18.48;;;22.90;99.90;;;;;;5098528;27;20038;-81
2023/09/18 04:12:32;;;;;;;22.40;20.05;;;22.80;99.90;;;;;;5119331;27;20134;-83
2023/09/18 04:14:57;;;;;;;21.23;18.60;;;22.80;99.90;;;;;;5136977;27;20047;-83
2023/09/18 04:17:23;;;;;;;21.42;18.83;;;22.90;99.90;;;;;;5117415;27;20430;-83
2023/09/18 04:19:49;;;;;;;21.48;18.77;;;23.20;99.90;;;;;;5115570;27;20042;-82
2023/09/18 04:22:15;;;;;;;19.48;17.55;;;23.20;99.90;;;;;;5104806;27;20059;-81
2023/09/18 04:24:40;;;;;;;23.25;19.92;;;22.90;99.90;;;;;;5125082;27;20039;-82
2023/09/18 04:27:07;;;;;;;21.77;19.48;;;22.90;99.90;;;;;;5118800;27;20100;-81
2023/09/18 04:29:32;;;;;;;21.98;18.27;;;23.80;99.90;;;;;;5121388;28;20106;-83
2023/09/18 04:31:58;;;;;;;19.20;17.17;;;22.90;99.90;;;;;;5111212;28;20123;-82
2023/09/18 04:34:24;;;;;;;19.40;17.40;;;23.00;99.90;;;;;;5147161;27;20046;-81
2023/09/18 04:36:50;;;;;;;17.73;15.93;;;23.30;99.90;;;;;;5101006;27;20078;-82
2023/09/18 04:39:16;;;;;;;18.55;16.70;;;23.00;99.90;;;;;;5104047;27;20036;-83
2023/09/18 04:41:42;;;;;;;21.08;17.35;;;23.30;99.90;;;;;;5113515;28;20084;-82
2023/09/18 04:44:07;;;;;;;18.63;16.80;;;23.00;99.90;;;;;;5102657;27;20035;-81
2023/09/18 04:46:35;;;;;;;19.42;17.27;;;23.00;99.90;;;;;;5111082;27;20086;-81
2023/09/18 04:49:00;;;;;;;17.63;15.82;;;23.40;99.90;;;;;;5125865;27;20051;-81
2023/09/18 04:51:26;;;;;;;19.95;17.85;;;23.10;99.90;;;;;;5119900;27;20035;-80
2023/09/18 04:53:52;;;;;;;18.70;16.88;;;23.30;99.90;;;;;;5124078;27;20118;-80
2023/09/18 04:56:18;;;;;;;18.63;16.63;;;23.00;99.90;;;;;;5132841;27;20039;-82
2023/09/18 04:58:50;;;;;;;18.88;16.88;;;23.10;99.90;;;;;;5142927;27;20039;-83
2023/09/18 05:01:17;;;;;;;19.25;17.23;;;23.10;99.90;;;;;;5104104;28;20036;-82
2023/09/18 05:03:43;;;;;;;19.15;16.92;;;23.30;99.90;;;;;;5151166;27;20043;-82
2023/09/18 05:06:08;;;;;;;19.17;17.20;;;23.30;99.90;;;;;;5104098;27;20375;-82
2023/09/18 05:08:34;;;;;;;19.58;16.20;;;23.10;99.90;;;;;;5100913;27;20067;-84
2023/09/18 05:11:00;;;;;;;18.83;16.83;;;23.40;99.90;;;;;;5126440;27;20051;-83
2023/09/18 05:13:26;;;;;;;16.33;14.70;;;23.30;99.90;;;;;;5092947;28;20499;-85
2023/09/18 05:15:52;;;;;;;17.38;15.57;;;23.50;99.90;;;;;;5096509;27;20070;-85
2023/09/18 05:18:18;;;;;;;19.08;16.50;;;23.30;99.90;;;;;;5090424;28;20066;-83
2023/09/18 05:20:43;;;;;;;17.02;15.23;;;23.70;99.90;;;;;;5103731;27;20043;-83
2023/09/18 05:23:11;;;;;;;20.42;17.02;;;23.70;99.90;;;;;;5097108;27;20046;-82
2023/09/18 05:25:38;;;;;;;17.50;15.68;;;23.60;99.90;;;;;;5075127;27;20127;-82
2023/09/18 05:28:05;;;;;;;21.88;17.00;;;23.40;99.90;;;;;;5093233;27;20039;-81
2023/09/18 05:30:38;;;;;;;16.23;14.52;;;23.80;99.90;;;;;;5082282;28;20054;-81
2023/09/18 05:33:05;;;;;;;17.40;15.57;;;23.50;99.90;;;;;;5114109;27;20042;-82
2023/09/18 05:35:39;;;;;;;16.30;14.60;;;23.60;99.90;;;;;;5100049;28;20036;-82
2023/09/18 05:38:05;;;;;;;16.63;14.65;;;23.50;99.90;;;;;;5079245;27;20088;-81
2023/09/18 05:40:32;;;;;;;17.30;15.15;;;23.90;99.90;;;;;;5111922;27;20039;-84
2023/09/18 05:42:58;;;;;;;17.05;14.95;;;23.70;99.90;;;;;;5084261;27;20119;-84
2023/09/18 05:45:26;;;;;;;19.75;17.17;;;23.60;99.90;;;;;;5114161;27;20400;-83
2023/09/18 05:47:53;;;;;;;18.27;16.15;;;23.90;99.90;;;;;;5095476;27;20039;-83
2023/09/18 05:50:19;;;;;;;18.08;16.08;;;23.60;99.90;;;;;;5127912;27;20553;-78
2023/09/18 05:52:46;;;;;;;19.65;15.85;;;24.00;99.90;;;;;;5114369;27;20035;-81
2023/09/18 05:55:44;;;;;;;16.27;14.10;;;24.10;99.90;;;;;;5100012;28;20089;-86
2023/09/18 06:05:02;;;;;;;17.48;12.65;;;24.10;99.90;;;;;;5026725;28;20063;-81
2023/09/18 06:07:29;;;;;;;16.48;11.82;;;24.10;99.90;;;;;;5024553;27;20115;-81
2023/09/18 06:09:54;;;;;;;13.95;11.55;;;24.30;99.90;;;;;;5109377;27;20515;-83
2023/09/18 06:12:23;;;;;;;14.00;12.65;;;24.00;99.90;;;;;;5112328;27;20153;-82
2023/09/18 06:14:49;;;;;;;16.38;12.02;;;24.30;99.90;;;;;;5108627;27;20679;-83
2023/09/18 06:17:16;;;;;;;15.23;11.00;;;24.40;99.90;;;;;;5107698;27;20049;-81
2023/09/18 06:19:42;;;;;;;14.27;10.30;;;24.50;99.90;;;;;;5118330;27;20054;-83
2023/09/18 06:22:09;;;;;;;45.17;13.98;;;24.20;99.90;;;;;;5125637;27;20049;-81
2023/09/18 06:24:35;;;;;;;15.38;10.77;;;24.40;99.90;;;;;;5114808;27;20043;-84
2023/09/18 06:27:01;;;;;;;35.65;13.65;;;24.50;99.90;;;;;;5111194;27;20117;-83
2023/09/18 06:29:28;;;;;;;12.73;10.52;;;24.40;99.90;;;;;;5117433;27;20946;-81
2023/09/18 06:31:54;;;;;;;18.80;10.25;;;24.50;99.90;;;;;;5113837;27;20116;-83
2023/09/18 06:34:20;;;;;;;13.48;9.90;;;24.60;99.90;;;;;;5097603;27;20464;-83
2023/09/18 06:36:45;;;;;;;13.00;10.30;;;24.30;99.90;;;;;;5101975;27;20027;-82
2023/09/18 06:39:12;;;;;;;13.02;10.07;;;24.30;99.90;;;;;;5115233;27;20027;-83
2023/09/18 06:41:44;;;;;;;26.60;11.55;;;24.50;99.90;;;;;;5132325;27;20031;-85
2023/09/18 06:44:10;;;;;;;14.50;10.85;;;24.30;99.90;;;;;;5117877;27;20066;-83
2023/09/18 06:46:35;;;;;;;16.05;10.65;;;24.40;99.90;;;;;;5097311;27;20069;-83
2023/09/18 06:49:01;;;;;;;12.30;10.00;;;24.30;99.90;;;;;;5084422;28;20035;-83
2023/09/18 06:51:33;;;;;;;12.43;9.38;;;24.40;99.90;;;;;;5112859;27;20407;-83
2023/09/18 06:54:02;;;;;;;12.55;10.50;;;24.50;99.90;;;;;;5136948;27;20038;-83
2023/09/18 06:56:28;;;;;;;12.73;9.55;;;24.20;99.90;;;;;;5097777;27;20039;-85
2023/09/18 06:58:55;;;;;;;13.93;10.05;;;24.30;99.90;;;;;;5117471;27;20034;-82
2023/09/18 07:01:21;;;;;;;11.15;9.98;;;24.40;99.90;;;;;;5105246;27;20031;-82
2023/09/18 07:03:47;;;;;;;14.77;11.00;;;24.30;99.90;;;;;;5098244;27;20046;-81
2023/09/18 07:06:18;;;;;;;15.15;10.25;;;24.30;99.90;;;;;;5125015;27;20111;-83
2023/09/18 07:08:44;;;;;;;12.38;10.10;;;24.30;99.90;;;;;;5139432;27;20051;-81
2023/09/18 07:11:11;;;;;;;13.07;10.52;;;24.60;99.90;;;;;;5129941;27;20066;-81
2023/09/18 07:13:38;;;;;;;12.90;10.48;;;24.30;99.90;;;;;;5102334;27;20720;-80
2023/09/18 07:16:04;;;;;;;12.55;9.48;;;24.00;99.90;;;;;;5107931;27;20034;-81
2023/09/18 07:18:30;;;;;;;11.93;10.23;;;24.10;99.90;;;;;;5125079;27;20124;-82
2023/09/18 07:20:56;;;;;;;12.60;9.35;;;24.00;99.90;;;;;;5111367;27;20401;-81
2023/09/18 07:23:22;;;;;;;12.13;8.73;;;23.90;99.90;;;;;;5131328;27;20039;-80
2023/09/18 07:25:48;;;;;;;15.65;11.57;;;24.20;99.90;;;;;;5132712;27;20045;-81
2023/09/18 07:28:17;;;;;;;8.68;7.78;;;23.90;99.90;;;;;;5129205;27;20118;-78
2023/09/18 07:30:43;;;;;;;22.30;12.13;;;23.90;99.90;;;;;;5124446;27;20032;-77
2023/09/18 07:33:15;;;;;;;28.65;15.07;;;23.80;99.90;;;;;;5103775;27;20035;-80
2023/09/18 07:35:41;;;;;;;24.30;14.63;;;23.80;99.90;;;;;;5131964;27;20043;-80
2023/09/18 07:38:07;;;;;;;28.38;14.80;;;24.70;99.90;;;;;;5117944;27;20034;-83
2023/09/18 07:40:33;;;;;;;38.50;17.15;;;23.80;99.90;;;;;;5098986;27;20068;-83
2023/09/18 07:42:59;;;;;;;34.00;17.23;;;23.70;99.90;;;;;;5089555;27;20475;-80
2023/09/18 07:45:25;;;;;;;20.83;15.25;;;24.10;99.90;;;;;;5110567;27;20059;-80
2023/09/18 07:47:51;;;;;;;14.82;12.40;;;24.40;99.90;;;;;;5121166;27;20114;-78
2023/09/18 07:50:17;;;;;;;22.95;15.52;;;24.30;99.90;;;;;;5119259;27;20076;-80
2023/09/18 07:52:43;;;;;;;19.42;14.50;;;24.40;99.90;;;;;;5129490;27;20047;-82
2023/09/18 07:55:09;;;;;;;21.20;14.45;;;24.00;99.90;;;;;;5123435;27;20521;-81
2023/09/18 07:57:36;;;;;;;22.73;15.68;;;24.20;99.90;;;;;;5119281;27;20422;-82
2023/09/18 08:00:07;;;;;;;24.98;15.40;;;24.00;99.90;;;;;;5100972;27;20499;-83
2023/09/18 08:02:34;;;;;;;19.70;14.52;;;23.90;99.90;;;;;;5109466;27;20051;-82
2023/09/18 08:05:04;;;;;;;24.20;16.55;;;24.30;99.90;;;;;;5108285;27;20039;-81
2023/09/18 08:07:30;;;;;;;22.10;15.85;;;24.30;99.90;;;;;;5099879;28;20484;-82
2023/09/18 08:09:56;;;;;;;25.75;17.42;;;24.00;99.90;;;;;;5136600;27;20039;-81
2023/09/18 08:12:23;;;;;;;29.20;18.73;;;23.90;99.90;;;;;;5112733;27;20053;-79
2023/09/18 08:14:50;;;;;;;28.60;19.20;;;24.40;99.90;;;;;;5112139;27;20042;-78
2023/09/18 08:17:16;;;;;;;15.77;13.02;;;24.00;99.90;;;;;;5110465;27;20093;-80
2023/09/18 08:19:44;;;;;;;23.15;16.35;;;24.00;99.90;;;;;;5103338;27;20037;-81
2023/09/18 08:22:11;;;;;;;23.98;16.20;;;24.50;99.90;;;;;;5075164;28;20479;-82
2023/09/18 08:24:37;;;;;;;21.98;15.63;;;24.60;99.90;;;;;;5105388;28;20122;-81
2023/09/18 08:27:03;;;;;;;30.30;18.05;;;24.50;99.90;;;;;;5101873;27;20130;-79
2023/09/18 08:29:29;;;;;;;19.38;15.32;;;24.00;99.90;;;;;;5132351;27;20035;-80
2023/09/18 08:31:54;;;;;;;15.80;13.30;;;24.30;99.90;;;;;;5094434;27;20027;-81
2023/09/18 08:34:20;;;;;;;22.58;14.98;;;24.50;99.90;;;;;;5128530;27;20110;-79
2023/09/18 08:36:46;;;;;;;16.77;13.95;;;24.10;99.90;;;;;;5102462;27;20039;-81
2023/09/18 08:39:12;;;;;;;18.48;15.18;;;24.70;99.90;;;;;;5125342;27;20053;-80
2023/09/18 08:41:43;;;;;;;25.90;17.17;;;24.60;99.90;;;;;;5104209;27;20023;-80
2023/09/18 08:44:09;;;;;;;17.15;13.40;;;24.20;99.90;;;;;;5106046;27;20039;-83
2023/09/18 08:46:36;;;;;;;25.98;16.58;;;24.50;99.90;;;;;;5098116;28;20035;-81
2023/09/18 08:49:04;;;;;;;19.65;14.20;;;24.10;99.90;;;;;;5130023;27;20117;-82
2023/09/18 08:51:30;;;;;;;16.08;13.40;;;24.40;99.90;;;;;;5102643;27;20036;-80
2023/09/18 08:53:56;;;;;;;16.50;13.68;;;23.80;99.90;;;;;;5078642;28;20035;-82
2023/09/18 08:56:23;;;;;;;15.13;13.43;;;23.80;99.90;;;;;;5112380;28;20097;-79
2023/09/18 08:58:49;;;;;;;16.98;13.68;;;25.10;99.90;;;;;;5108131;27;20041;-80
2023/09/18 09:01:15;;;;;;;24.67;16.45;;;23.80;99.90;;;;;;5135212;27;20050;-80
2023/09/18 09:03:47;;;;;;;18.45;14.23;;;25.20;99.90;;;;;;5102566;27;20038;-82
2023/09/18 09:06:13;;;;;;;19.17;14.57;;;24.50;99.90;;;;;;5138964;27;20051;-79
2023/09/18 09:08:39;;;;;;;14.88;12.75;;;24.20;99.90;;;;;;5139687;27;20045;-79
2023/09/18 09:11:05;;;;;;;21.00;14.68;;;24.00;99.90;;;;;;5136038;27;20031;-78
2023/09/18 09:13:31;;;;;;;17.60;13.45;;;24.20;99.90;;;;;;5117456;27;20648;-77
2023/09/18 09:15:59;;;;;;;22.55;16.10;;;25.30;99.90;;;;;;5133518;27;20075;-77
2023/09/18 09:18:29;;;;;;;17.70;12.65;;;25.10;99.90;;;;;;5143351;27;20039;-79
2023/09/18 09:20:58;;;;;;;18.20;13.70;;;25.20;99.90;;;;;;5121271;27;20463;-78
2023/09/18 09:23:28;;;;;;;16.45;12.98;;;25.40;99.90;;;;;;5136780;27;20042;-80
2023/09/18 09:26:11;;;;;;;14.00;11.65;;;25.40;99.90;;;;;;5133788;27;20439;-83
2023/09/18 09:28:37;;;;;;;17.77;12.73;;;25.40;99.90;;;;;;5127333;27;20733;-77
2023/09/18 09:31:03;;;;;;;19.58;14.52;;;24.40;99.90;;;;;;5121756;27;20043;-80
2023/09/18 09:33:30;;;;;;;15.00;11.75;;;24.30;99.90;;;;;;5117433;27;20462;-83
2023/09/18 09:35:56;;;;;;;20.20;14.73;;;25.40;99.90;;;;;;5102078;27;20072;-80
2023/09/18 09:38:31;;;;;;;18.30;14.13;;;24.20;99.90;;;;;;5138508;27;20121;-81
2023/09/18 09:40:59;;;;;;;16.23;14.18;;;25.60;99.90;;;;;;5138407;27;20035;-80
2023/09/18 09:43:26;;;;;;;14.82;11.90;;;24.40;99.90;;;;;;5093777;27;20437;-81
2023/09/18 09:46:05;;;;;;;17.85;14.52;;;24.50;99.90;;;;;;5132590;27;20654;-80
2023/09/18 09:48:31;;;;;;;22.33;15.77;;;24.30;99.90;;;;;;5118704;27;20047;-81
2023/09/18 09:50:59;;;;;;;18.88;14.40;;;25.80;99.90;;;;;;5110305;27;20028;-84
2023/09/18 09:53:48;;;;;;;17.35;13.80;;;24.90;99.90;;;;;;5143481;27;20034;-81
2023/09/18 09:56:14;;;;;;;21.88;16.05;;;25.70;99.90;;;;;;5122054;27;20092;-81
2023/09/18 09:58:43;;;;;;;19.58;16.15;;;26.10;99.90;;;;;;5152877;27;20047;-82
2023/09/18 10:01:17;;;;;;;21.17;16.30;;;26.10;99.90;;;;;;5127681;27;20647;-81
2023/09/18 10:03:43;;;;;;;20.60;16.25;;;24.50;99.90;;;;;;5133463;27;20039;-84
2023/09/18 10:06:13;;;;;;;22.20;18.20;;;24.50;99.90;;;;;;5122117;27;20580;-80
2023/09/18 10:08:39;;;;;;;15.70;12.82;;;25.10;99.90;;;;;;5147184;27;20048;-81
2023/09/18 10:11:10;;;;;;;24.33;18.17;;;24.60;99.90;;;;;;5097168;27;20046;-81
2023/09/18 10:13:57;;;;;;;28.67;21.02;;;26.40;99.90;;;;;;5128361;27;20043;-82
2023/09/18 10:16:27;;;;;;;20.90;18.25;;;25.70;99.90;;;;;;5117086;27;20083;-82
2023/09/18 10:19:08;;;;;;;23.38;19.83;;;26.20;99.90;;;;;;5121683;27;20039;-84
2023/09/18 10:22:00;;;;;;;25.55;19.50;;;25.30;99.90;;;;;;5131892;27;20043;-83
2023/09/18 10:24:31;;;;;;;22.50;18.00;;;25.20;99.90;;;;;;5110431;27;20054;-83
2023/09/18 10:27:04;;;;;;;22.80;19.48;;;25.20;99.90;;;;;;5123234;27;20115;-80
2023/09/18 10:29:32;;;;;;;21.98;18.98;;;26.20;99.90;;;;;;5142526;27;20039;-81
2023/09/18 10:31:58;;;;;;;21.65;18.75;;;25.50;99.90;;;;;;5120492;27;20069;-85
2023/09/18 10:34:24;;;;;;;23.33;19.90;;;26.60;99.90;;;;;;5126528;27;20071;-81
2023/09/18 10:36:52;;;;;;;21.60;19.15;;;27.10;99.90;;;;;;5129978;27;20430;-81
2023/09/18 10:39:23;;;;;;;25.42;20.73;;;25.80;99.90;;;;;;5091287;28;20127;-83
2023/09/18 10:41:52;;;;;;;22.90;19.25;;;26.80;99.90;;;;;;5112887;27;20035;-85
2023/09/18 10:44:18;;;;;;;20.60;18.40;;;26.20;99.90;;;;;;5093740;28;20031;-81
2023/09/18 10:46:48;;;;;;;20.42;18.27;;;27.00;99.90;;;;;;5105047;27;20100;-80
2023/09/18 10:49:18;;;;;;;20.00;17.70;;;26.40;99.90;;;;;;5140379;27;20078;-81
2023/09/18 10:51:44;;;;;;;19.20;17.25;;;25.80;99.90;;;;;;5114524;27;20043;-81
2023/09/18 10:54:30;;;;;;;17.42;15.52;;;27.20;99.90;;;;;;5128436;27;20433;-84
2023/09/18 10:56:56;;;;;;;19.42;17.05;;;26.80;99.90;;;;;;5100859;27;20051;-80
2023/09/18 10:59:22;;;;;;;18.45;13.82;;;26.20;99.90;;;;;;5091547;28;20073;-82
2023/09/18 11:01:49;;;;;;;13.10;11.90;;;27.00;99.90;;;;;;5096862;28;20564;-84
2023/09/18 11:04:18;;;;;;;13.93;12.48;;;25.90;99.90;;;;;;5108888;27;20042;-81
2023/09/18 11:06:53;;;;;;;13.38;11.43;;;27.10;99.90;;;;;;5092374;28;20092;-81
2023/09/18 11:09:27;;;;;;;12.50;11.10;;;27.20;99.90;;;;;;5094055;27;20043;-83
2023/09/18 11:12:00;;;;;;;13.23;11.15;;;26.00;99.90;;;;;;5079204;28;20151;-80
2023/09/18 11:14:49;;;;;;;10.15;9.15;;;26.40;99.90;;;;;;5097776;28;20395;-82
2023/09/18 11:17:38;;;;;;;9.23;8.43;;;26.90;99.90;;;;;;5117430;27;20039;-83
2023/09/18 11:20:17;;;;;;;9.00;8.10;;;25.90;99.90;;;;;;5117622;27;20411;-80
2023/09/18 11:22:55;;;;;;;8.63;7.82;;;26.70;99.90;;;;;;5092148;28;20076;-87
2023/09/18 11:25:35;;;;;;;9.65;8.30;;;26.00;99.90;;;;;;5099197;28;20697;-85
2023/09/18 11:28:02;;;;;;;9.02;7.30;;;26.60;99.90;;;;;;5117276;27;20091;-83
2023/09/18 11:30:32;;;;;;;7.50;6.80;;;26.70;99.90;;;;;;5103834;28;20053;-81
2023/09/18 11:32:58;;;;;;;9.02;7.57;;;26.70;99.90;;;;;;5092841;28;20028;-82
2023/09/18 11:35:25;;;;;;;9.02;6.78;;;26.30;99.90;;;;;;5117551;27;20080;-80
2023/09/18 11:38:09;;;;;;;8.02;6.68;;;26.20;99.90;;;;;;5117330;27;20067;-82
2023/09/18 11:40:41;;;;;;;8.85;6.80;;;26.00;99.90;;;;;;5110021;27;20392;-84
2023/09/18 11:43:29;;;;;;;8.10;7.32;;;26.60;99.90;;;;;;5100216;27;20047;-85
2023/09/18 11:45:56;;;;;;;8.63;6.57;;;26.20;99.90;;;;;;5091901;28;20039;-81
2023/09/18 11:48:29;;;;;;;7.95;6.50;;;26.60;99.90;;;;;;5118026;27;20097;-84
2023/09/18 11:50:57;;;;;;;6.95;6.22;;;27.00;99.90;;;;;;5119577;27;20033;-84
2023/09/18 11:53:24;;;;;;;6.80;6.15;;;27.00;99.90;;;;;;5102747;27;20038;-81
2023/09/18 11:55:50;;;;;;;8.23;6.80;;;26.50;99.90;;;;;;5094337;28;20043;-80
2023/09/18 11:58:16;;;;;;;6.65;5.75;;;26.70;99.90;;;;;;5063406;27;20039;-82
2023/09/18 12:00:48;;;;;;;6.10;5.57;;;26.70;99.90;;;;;;5101600;27;20070;-81
2023/09/18 12:03:27;;;;;;;6.95;6.25;;;26.80;99.90;;;;;;5112894;27;20051;-85
2023/09/18 12:06:05;;;;;;;7.05;5.57;;;26.90;99.90;;;;;;5099709;28;20042;-83
2023/09/18 12:08:31;;;;;;;5.75;4.97;;;26.80;99.90;;;;;;5119904;27;20043;-83
2023/09/18 12:10:58;;;;;;;7.00;5.30;;;27.20;99.90;;;;;;5108270;28;20046;-81
2023/09/18 12:13:27;;;;;;;5.55;5.00;;;27.20;99.90;;;;;;5092851;28;20104;-83
2023/09/18 12:15:58;;;;;;;6.13;5.35;;;27.00;99.90;;;;;;5108771;28;20035;-81
2023/09/18 12:18:25;;;;;;;14.90;6.13;;;26.90;99.90;;;;;;5117967;27;20044;-82
2023/09/18 12:20:51;;;;;;;6.72;5.57;;;27.00;99.90;;;;;;5111011;27;20066;-80
2023/09/18 12:23:19;;;;;;;5.50;5.00;;;27.10;99.90;;;;;;5099853;28;20039;-85
2023/09/18 12:25:58;;;;;;;6.03;5.43;;;27.30;99.90;;;;;;5082566;28;20124;-86
2023/09/18 12:28:27;;;;;;;6.18;5.57;;;27.40;99.90;;;;;;5099393;28;20508;-81
2023/09/18 12:30:56;;;;;;;6.07;5.45;;;27.30;99.90;;;;;;5098859;27;20074;-83
2023/09/18 12:33:25;;;;;;;5.50;5.00;;;27.40;99.90;;;;;;5081404;28;20097;-87
2023/09/18 12:35:51;;;;;;;6.13;5.53;;;27.40;99.90;;;;;;5098958;28;20044;-85
2023/09/18 12:38:26;;;;;;;5.20;4.70;;;27.30;99.90;;;;;;5099483;28;20123;-83
2023/09/18 12:40:53;;;;;;;6.65;4.85;;;27.30;99.90;;;;;;5083962;28;20054;-82
2023/09/18 12:43:22;;;;;;;6.88;4.95;;;27.10;99.90;;;;;;5089924;28;20039;-81